sensor_id;sensor_type;location;lat;lon;timestamp;P1;durP1;ratioP1;P2;durP2;ratioP2
1106;SDS011;540;49.448;8.612;2023-07-29T00:00:24;2.42;;;1.38;;
1106;SDS011;540;49.448;8.612;2023-07-29T00:02:54;1.95;;;1.40;;
1106;SDS011;540;49.448;8.612;2023-07-29T00:05:22;2.22;;;1.40;;
1106;SDS011;540;49.448;8.612;2023-07-29T00:07:50;2.17;;;1.90;;
1106;SDS011;540;49.448;8.612;2023-07-29T00:10:17;2.17;;;1.50;;
1106;SDS011;540;49.448;8.612;2023-07-29T00:12:47;3.67;;;1.20;;
1106;SDS011;540;49.448;8.612;2023-07-29T00:15:14;1.77;;;1.20;;
1106;SDS011;540;49.448;8.612;2023-07-29T00:17:42;2.58;;;1.40;;
1106;SDS011;540;49.448;8.612;2023-07-29T00:20:10;3.80;;;1.38;;
1106;SDS011;540;49.448;8.612;2023-07-29T00:22:38;2.35;;;1.63;;
1106;SDS011;540;49.448;8.612;2023-07-29T00:25:06;2.58;;;1.50;;
1106;SDS011;540;49.448;8.612;2023-07-29T00:27:34;2.97;;;1.48;;
1106;SDS011;540;49.448;8.612;2023-07-29T00:30:04;3.42;;;1.50;;
1106;SDS011;540;49.448;8.612;2023-07-29T00:32:33;2.65;;;1.55;;
1106;SDS011;540;49.448;8.612;2023-07-29T00:35:00;2.88;;;1.95;;
1106;SDS011;540;49.448;8.612;2023-07-29T00:37:29;3.33;;;1.50;;
1106;SDS011;540;49.448;8.612;2023-07-29T00:39:57;2.08;;;1.63;;
1106;SDS011;540;49.448;8.612;2023-07-29T00:42:25;2.67;;;1.83;;
1106;SDS011;540;49.448;8.612;2023-07-29T00:44:53;2.25;;;2.03;;
1106;SDS011;540;49.448;8.612;2023-07-29T00:47:22;2.75;;;1.83;;
1106;SDS011;540;49.448;8.612;2023-07-29T00:49:52;4.53;;;1.90;;
1106;SDS011;540;49.448;8.612;2023-07-29T00:52:20;2.50;;;1.70;;
1106;SDS011;540;49.448;8.612;2023-07-29T00:54:48;4.03;;;2.05;;
1106;SDS011;540;49.448;8.612;2023-07-29T00:57:16;4.30;;;1.83;;
1106;SDS011;540;49.448;8.612;2023-07-29T00:59:46;2.20;;;2.00;;
1106;SDS011;540;49.448;8.612;2023-07-29T01:02:14;3.13;;;1.50;;
1106;SDS011;540;49.448;8.612;2023-07-29T01:04:43;4.43;;;2.13;;
1106;SDS011;540;49.448;8.612;2023-07-29T01:07:12;3.03;;;1.60;;
1106;SDS011;540;49.448;8.612;2023-07-29T01:09:48;2.35;;;2.00;;
1106;SDS011;540;49.448;8.612;2023-07-29T01:12:21;2.08;;;1.85;;
1106;SDS011;540;49.448;8.612;2023-07-29T01:14:55;2.45;;;1.65;;
1106;SDS011;540;49.448;8.612;2023-07-29T01:17:29;2.15;;;1.95;;
1106;SDS011;540;49.448;8.612;2023-07-29T01:20:03;4.38;;;1.70;;
1106;SDS011;540;49.448;8.612;2023-07-29T01:22:36;2.83;;;1.67;;
1106;SDS011;540;49.448;8.612;2023-07-29T01:25:07;3.05;;;1.73;;
1106;SDS011;540;49.448;8.612;2023-07-29T01:27:35;1.65;;;1.40;;
1106;SDS011;540;49.448;8.612;2023-07-29T01:30:03;2.28;;;2.08;;
1106;SDS011;540;49.448;8.612;2023-07-29T01:32:34;4.85;;;2.30;;
1106;SDS011;540;49.448;8.612;2023-07-29T01:35:07;3.55;;;2.20;;
1106;SDS011;540;49.448;8.612;2023-07-29T01:37:42;3.63;;;1.77;;
1106;SDS011;540;49.448;8.612;2023-07-29T01:40:15;4.45;;;1.90;;
1106;SDS011;540;49.448;8.612;2023-07-29T01:42:45;2.83;;;2.17;;
1106;SDS011;540;49.448;8.612;2023-07-29T01:45:13;3.80;;;2.00;;
1106;SDS011;540;49.448;8.612;2023-07-29T01:47:41;2.10;;;1.90;;
1106;SDS011;540;49.448;8.612;2023-07-29T01:50:10;2.05;;;1.85;;
1106;SDS011;540;49.448;8.612;2023-07-29T01:52:38;2.42;;;2.00;;
1106;SDS011;540;49.448;8.612;2023-07-29T01:55:06;5.05;;;2.30;;
1106;SDS011;540;49.448;8.612;2023-07-29T01:57:36;6.22;;;2.33;;
1106;SDS011;540;49.448;8.612;2023-07-29T02:00:04;3.03;;;2.17;;
1106;SDS011;540;49.448;8.612;2023-07-29T02:02:34;2.45;;;1.83;;
1106;SDS011;540;49.448;8.612;2023-07-29T02:05:02;2.65;;;2.15;;
1106;SDS011;540;49.448;8.612;2023-07-29T02:07:29;2.75;;;1.85;;
1106;SDS011;540;49.448;8.612;2023-07-29T02:09:57;2.92;;;1.95;;
1106;SDS011;540;49.448;8.612;2023-07-29T02:12:26;2.95;;;2.22;;
1106;SDS011;540;49.448;8.612;2023-07-29T02:14:55;3.63;;;1.98;;
1106;SDS011;540;49.448;8.612;2023-07-29T02:17:22;2.05;;;1.60;;
1106;SDS011;540;49.448;8.612;2023-07-29T02:19:52;4.30;;;2.15;;
1106;SDS011;540;49.448;8.612;2023-07-29T02:22:19;3.25;;;1.60;;
1106;SDS011;540;49.448;8.612;2023-07-29T02:24:47;2.25;;;1.52;;
1106;SDS011;540;49.448;8.612;2023-07-29T02:27:15;3.25;;;1.73;;
1106;SDS011;540;49.448;8.612;2023-07-29T02:29:43;1.88;;;1.30;;
1106;SDS011;540;49.448;8.612;2023-07-29T02:32:12;6.68;;;1.65;;
1106;SDS011;540;49.448;8.612;2023-07-29T02:34:40;2.42;;;1.75;;
1106;SDS011;540;49.448;8.612;2023-07-29T02:37:08;1.85;;;1.50;;
1106;SDS011;540;49.448;8.612;2023-07-29T02:39:36;1.70;;;1.50;;
1106;SDS011;540;49.448;8.612;2023-07-29T02:42:04;2.28;;;1.55;;
1106;SDS011;540;49.448;8.612;2023-07-29T02:44:32;7.28;;;1.77;;
1106;SDS011;540;49.448;8.612;2023-07-29T02:47:00;2.95;;;1.30;;
1106;SDS011;540;49.448;8.612;2023-07-29T02:49:29;2.08;;;1.73;;
1106;SDS011;540;49.448;8.612;2023-07-29T02:51:56;3.40;;;1.30;;
1106;SDS011;540;49.448;8.612;2023-07-29T02:54:24;3.15;;;1.45;;
1106;SDS011;540;49.448;8.612;2023-07-29T02:56:52;4.18;;;1.30;;
1106;SDS011;540;49.448;8.612;2023-07-29T02:59:20;3.70;;;1.20;;
1106;SDS011;540;49.448;8.612;2023-07-29T03:01:48;2.97;;;1.35;;
1106;SDS011;540;49.448;8.612;2023-07-29T03:04:16;4.00;;;1.50;;
1106;SDS011;540;49.448;8.612;2023-07-29T03:06:45;1.92;;;1.33;;
1106;SDS011;540;49.448;8.612;2023-07-29T03:09:14;3.45;;;1.42;;
1106;SDS011;540;49.448;8.612;2023-07-29T03:11:42;1.60;;;1.13;;
1106;SDS011;540;49.448;8.612;2023-07-29T03:14:10;1.25;;;1.15;;
1106;SDS011;540;49.448;8.612;2023-07-29T03:16:38;1.58;;;1.05;;
1106;SDS011;540;49.448;8.612;2023-07-29T03:19:06;2.20;;;1.35;;
1106;SDS011;540;49.448;8.612;2023-07-29T03:21:34;1.77;;;0.95;;
1106;SDS011;540;49.448;8.612;2023-07-29T03:24:03;1.45;;;1.10;;
1106;SDS011;540;49.448;8.612;2023-07-29T03:26:33;3.42;;;0.90;;
1106;SDS011;540;49.448;8.612;2023-07-29T03:29:01;2.17;;;0.90;;
1106;SDS011;540;49.448;8.612;2023-07-29T03:31:29;0.93;;;0.77;;
1106;SDS011;540;49.448;8.612;2023-07-29T03:33:57;1.52;;;1.15;;
1106;SDS011;540;49.448;8.612;2023-07-29T03:36:24;2.55;;;1.20;;
1106;SDS011;540;49.448;8.612;2023-07-29T03:38:52;1.15;;;0.95;;
1106;SDS011;540;49.448;8.612;2023-07-29T03:41:22;1.42;;;0.90;;
1106;SDS011;540;49.448;8.612;2023-07-29T03:43:50;3.33;;;0.88;;
1106;SDS011;540;49.448;8.612;2023-07-29T03:46:17;1.85;;;0.90;;
1106;SDS011;540;49.448;8.612;2023-07-29T03:48:48;1.33;;;0.90;;
1106;SDS011;540;49.448;8.612;2023-07-29T03:51:15;1.35;;;0.80;;
1106;SDS011;540;49.448;8.612;2023-07-29T03:53:44;1.92;;;1.08;;
1106;SDS011;540;49.448;8.612;2023-07-29T03:56:11;1.80;;;0.90;;
1106;SDS011;540;49.448;8.612;2023-07-29T03:58:41;1.00;;;0.90;;
1106;SDS011;540;49.448;8.612;2023-07-29T04:01:10;2.35;;;1.00;;
1106;SDS011;540;49.448;8.612;2023-07-29T04:03:37;3.00;;;1.10;;
1106;SDS011;540;49.448;8.612;2023-07-29T04:06:05;2.38;;;1.27;;
1106;SDS011;540;49.448;8.612;2023-07-29T04:08:33;2.58;;;1.10;;
1106;SDS011;540;49.448;8.612;2023-07-29T04:11:01;1.70;;;0.90;;
1106;SDS011;540;49.448;8.612;2023-07-29T04:13:29;1.50;;;0.88;;
1106;SDS011;540;49.448;8.612;2023-07-29T04:15:58;1.35;;;1.20;;
1106;SDS011;540;49.448;8.612;2023-07-29T04:18:26;1.00;;;0.77;;
1106;SDS011;540;49.448;8.612;2023-07-29T04:20:53;1.20;;;1.00;;
1106;SDS011;540;49.448;8.612;2023-07-29T04:23:21;4.05;;;1.25;;
1106;SDS011;540;49.448;8.612;2023-07-29T04:25:49;4.65;;;2.30;;
1106;SDS011;540;49.448;8.612;2023-07-29T04:28:18;2.28;;;0.90;;
1106;SDS011;540;49.448;8.612;2023-07-29T04:30:45;1.65;;;1.30;;
1106;SDS011;540;49.448;8.612;2023-07-29T04:33:14;2.17;;;1.02;;
1106;SDS011;540;49.448;8.612;2023-07-29T04:35:42;2.83;;;1.17;;
1106;SDS011;540;49.448;8.612;2023-07-29T04:38:10;1.77;;;1.20;;
1106;SDS011;540;49.448;8.612;2023-07-29T04:40:38;2.92;;;1.10;;
1106;SDS011;540;49.448;8.612;2023-07-29T04:43:06;0.93;;;0.85;;
1106;SDS011;540;49.448;8.612;2023-07-29T04:45:33;1.75;;;1.20;;
1106;SDS011;540;49.448;8.612;2023-07-29T04:48:01;2.10;;;1.50;;
1106;SDS011;540;49.448;8.612;2023-07-29T04:50:31;1.88;;;1.20;;
1106;SDS011;540;49.448;8.612;2023-07-29T04:52:58;2.35;;;1.45;;
1106;SDS011;540;49.448;8.612;2023-07-29T04:55:26;1.92;;;1.00;;
1106;SDS011;540;49.448;8.612;2023-07-29T04:57:54;1.40;;;1.10;;
1106;SDS011;540;49.448;8.612;2023-07-29T05:00:22;4.25;;;1.58;;
1106;SDS011;540;49.448;8.612;2023-07-29T05:02:50;3.58;;;1.40;;
1106;SDS011;540;49.448;8.612;2023-07-29T05:05:18;4.25;;;1.50;;
1106;SDS011;540;49.448;8.612;2023-07-29T05:07:47;1.90;;;1.10;;
1106;SDS011;540;49.448;8.612;2023-07-29T05:10:15;6.70;;;1.80;;
1106;SDS011;540;49.448;8.612;2023-07-29T05:12:42;2.30;;;1.42;;
1106;SDS011;540;49.448;8.612;2023-07-29T05:15:10;1.73;;;1.20;;
1106;SDS011;540;49.448;8.612;2023-07-29T05:17:38;3.47;;;1.27;;
1106;SDS011;540;49.448;8.612;2023-07-29T05:20:07;3.38;;;1.35;;
1106;SDS011;540;49.448;8.612;2023-07-29T05:22:35;4.25;;;1.85;;
1106;SDS011;540;49.448;8.612;2023-07-29T05:25:05;1.80;;;1.67;;
1106;SDS011;540;49.448;8.612;2023-07-29T05:27:33;2.17;;;1.40;;
1106;SDS011;540;49.448;8.612;2023-07-29T05:30:01;6.25;;;1.80;;
1106;SDS011;540;49.448;8.612;2023-07-29T05:32:30;2.45;;;1.77;;
1106;SDS011;540;49.448;8.612;2023-07-29T05:34:58;2.00;;;1.50;;
1106;SDS011;540;49.448;8.612;2023-07-29T05:37:25;2.33;;;1.95;;
1106;SDS011;540;49.448;8.612;2023-07-29T05:39:53;2.58;;;1.80;;
1106;SDS011;540;49.448;8.612;2023-07-29T05:42:23;3.45;;;1.95;;
1106;SDS011;540;49.448;8.612;2023-07-29T05:44:50;8.15;;;4.10;;
1106;SDS011;540;49.448;8.612;2023-07-29T05:47:18;3.03;;;1.73;;
1106;SDS011;540;49.448;8.612;2023-07-29T05:49:46;4.18;;;2.05;;
1106;SDS011;540;49.448;8.612;2023-07-29T05:52:14;3.13;;;2.10;;
1106;SDS011;540;49.448;8.612;2023-07-29T05:54:42;2.25;;;1.23;;
1106;SDS011;540;49.448;8.612;2023-07-29T05:57:11;3.83;;;1.50;;
1106;SDS011;540;49.448;8.612;2023-07-29T05:59:40;2.92;;;1.85;;
1106;SDS011;540;49.448;8.612;2023-07-29T06:02:08;1.90;;;1.70;;
1106;SDS011;540;49.448;8.612;2023-07-29T06:04:36;3.03;;;1.90;;
1106;SDS011;540;49.448;8.612;2023-07-29T06:07:04;2.17;;;1.73;;
1106;SDS011;540;49.448;8.612;2023-07-29T06:09:32;3.88;;;1.75;;
1106;SDS011;540;49.448;8.612;2023-07-29T06:12:01;3.78;;;1.77;;
1106;SDS011;540;49.448;8.612;2023-07-29T06:14:28;3.22;;;2.00;;
1106;SDS011;540;49.448;8.612;2023-07-29T06:16:57;4.57;;;2.15;;
1106;SDS011;540;49.448;8.612;2023-07-29T06:19:25;4.72;;;2.70;;
1106;SDS011;540;49.448;8.612;2023-07-29T06:21:54;1.85;;;1.60;;
1106;SDS011;540;49.448;8.612;2023-07-29T06:24:23;4.18;;;2.40;;
1106;SDS011;540;49.448;8.612;2023-07-29T06:26:50;2.95;;;2.13;;
1106;SDS011;540;49.448;8.612;2023-07-29T06:29:18;3.33;;;2.53;;
1106;SDS011;540;49.448;8.612;2023-07-29T06:31:46;3.28;;;2.55;;
1106;SDS011;540;49.448;8.612;2023-07-29T06:34:16;4.07;;;3.08;;
1106;SDS011;540;49.448;8.612;2023-07-29T06:36:43;2.97;;;2.60;;
1106;SDS011;540;49.448;8.612;2023-07-29T06:39:11;4.45;;;2.50;;
1106;SDS011;540;49.448;8.612;2023-07-29T06:41:39;4.32;;;2.55;;
1106;SDS011;540;49.448;8.612;2023-07-29T06:44:07;2.75;;;2.33;;
1106;SDS011;540;49.448;8.612;2023-07-29T06:46:34;4.35;;;2.30;;
1106;SDS011;540;49.448;8.612;2023-07-29T06:49:05;3.13;;;2.17;;
1106;SDS011;540;49.448;8.612;2023-07-29T06:51:34;2.30;;;1.98;;
1106;SDS011;540;49.448;8.612;2023-07-29T06:54:02;3.33;;;2.10;;
1106;SDS011;540;49.448;8.612;2023-07-29T06:56:30;2.35;;;1.77;;
1106;SDS011;540;49.448;8.612;2023-07-29T06:58:58;4.07;;;2.17;;
1106;SDS011;540;49.448;8.612;2023-07-29T07:01:26;2.97;;;1.90;;
1106;SDS011;540;49.448;8.612;2023-07-29T07:03:54;3.75;;;2.10;;
1106;SDS011;540;49.448;8.612;2023-07-29T07:06:24;4.82;;;2.47;;
1106;SDS011;540;49.448;8.612;2023-07-29T07:08:53;2.17;;;1.70;;
1106;SDS011;540;49.448;8.612;2023-07-29T07:11:21;2.97;;;2.35;;
1106;SDS011;540;49.448;8.612;2023-07-29T07:13:49;2.85;;;1.90;;
1106;SDS011;540;49.448;8.612;2023-07-29T07:16:17;3.03;;;2.25;;
1106;SDS011;540;49.448;8.612;2023-07-29T07:18:45;3.15;;;2.00;;
1106;SDS011;540;49.448;8.612;2023-07-29T07:21:13;3.90;;;2.47;;
1106;SDS011;540;49.448;8.612;2023-07-29T07:23:40;2.45;;;1.73;;
1106;SDS011;540;49.448;8.612;2023-07-29T07:26:09;2.60;;;1.90;;
1106;SDS011;540;49.448;8.612;2023-07-29T07:28:37;3.08;;;1.80;;
1106;SDS011;540;49.448;8.612;2023-07-29T07:31:05;3.83;;;2.17;;
1106;SDS011;540;49.448;8.612;2023-07-29T07:33:33;2.03;;;1.77;;
1106;SDS011;540;49.448;8.612;2023-07-29T07:36:01;1.92;;;1.40;;
1106;SDS011;540;49.448;8.612;2023-07-29T07:38:29;4.22;;;1.73;;
1106;SDS011;540;49.448;8.612;2023-07-29T07:40:56;1.63;;;1.33;;
1106;SDS011;540;49.448;8.612;2023-07-29T07:43:25;4.90;;;2.25;;
1106;SDS011;540;49.448;8.612;2023-07-29T07:45:57;1.20;;;1.10;;
1106;SDS011;540;49.448;8.612;2023-07-29T07:48:25;2.40;;;1.60;;
1106;SDS011;540;49.448;8.612;2023-07-29T07:50:53;1.77;;;1.55;;
1106;SDS011;540;49.448;8.612;2023-07-29T07:53:21;7.10;;;1.60;;
1106;SDS011;540;49.448;8.612;2023-07-29T07:55:49;2.40;;;1.60;;
1106;SDS011;540;49.448;8.612;2023-07-29T07:58:17;3.90;;;1.80;;
1106;SDS011;540;49.448;8.612;2023-07-29T08:00:46;4.68;;;1.50;;
1106;SDS011;540;49.448;8.612;2023-07-29T08:03:14;3.30;;;1.63;;
1106;SDS011;540;49.448;8.612;2023-07-29T08:05:43;2.65;;;1.52;;
1106;SDS011;540;49.448;8.612;2023-07-29T08:08:12;2.03;;;1.10;;
1106;SDS011;540;49.448;8.612;2023-07-29T08:10:40;1.80;;;1.30;;
1106;SDS011;540;49.448;8.612;2023-07-29T08:13:09;2.50;;;1.42;;
1106;SDS011;540;49.448;8.612;2023-07-29T08:15:38;1.52;;;1.42;;
1106;SDS011;540;49.448;8.612;2023-07-29T08:18:09;1.90;;;1.40;;
1106;SDS011;540;49.448;8.612;2023-07-29T08:20:38;2.30;;;1.90;;
1106;SDS011;540;49.448;8.612;2023-07-29T08:23:07;2.78;;;1.50;;
1106;SDS011;540;49.448;8.612;2023-07-29T08:25:36;7.85;;;1.60;;
1106;SDS011;540;49.448;8.612;2023-07-29T08:28:05;1.55;;;1.35;;
1106;SDS011;540;49.448;8.612;2023-07-29T08:30:34;1.80;;;1.50;;
1106;SDS011;540;49.448;8.612;2023-07-29T08:33:03;3.63;;;1.58;;
1106;SDS011;540;49.448;8.612;2023-07-29T08:35:32;2.63;;;1.58;;
1106;SDS011;540;49.448;8.612;2023-07-29T08:38:01;7.00;;;1.88;;
1106;SDS011;540;49.448;8.612;2023-07-29T08:40:29;1.67;;;1.58;;
1106;SDS011;540;49.448;8.612;2023-07-29T08:43:01;2.47;;;1.40;;
1106;SDS011;540;49.448;8.612;2023-07-29T08:45:33;2.70;;;1.88;;
1106;SDS011;540;49.448;8.612;2023-07-29T08:48:04;3.67;;;1.92;;
1106;SDS011;540;49.448;8.612;2023-07-29T08:50:37;1.63;;;1.30;;
1106;SDS011;540;49.448;8.612;2023-07-29T08:53:06;3.72;;;1.70;;
1106;SDS011;540;49.448;8.612;2023-07-29T08:55:34;2.22;;;1.58;;
1106;SDS011;540;49.448;8.612;2023-07-29T08:58:03;3.25;;;1.70;;
1106;SDS011;540;49.448;8.612;2023-07-29T09:00:31;2.00;;;1.70;;
1106;SDS011;540;49.448;8.612;2023-07-29T09:03:00;2.33;;;1.50;;
1106;SDS011;540;49.448;8.612;2023-07-29T09:05:33;2.15;;;1.70;;
1106;SDS011;540;49.448;8.612;2023-07-29T09:08:02;6.00;;;1.65;;
1106;SDS011;540;49.448;8.612;2023-07-29T09:10:34;1.77;;;1.55;;
1106;SDS011;540;49.448;8.612;2023-07-29T09:13:03;2.20;;;1.20;;
1106;SDS011;540;49.448;8.612;2023-07-29T09:15:32;4.45;;;1.45;;
1106;SDS011;540;49.448;8.612;2023-07-29T09:18:08;2.80;;;1.20;;
1106;SDS011;540;49.448;8.612;2023-07-29T09:20:37;4.05;;;1.10;;
1106;SDS011;540;49.448;8.612;2023-07-29T09:23:08;1.75;;;1.30;;
1106;SDS011;540;49.448;8.612;2023-07-29T09:25:37;1.33;;;1.15;;
1106;SDS011;540;49.448;8.612;2023-07-29T09:28:10;2.20;;;1.40;;
1106;SDS011;540;49.448;8.612;2023-07-29T09:30:39;3.30;;;1.35;;
1106;SDS011;540;49.448;8.612;2023-07-29T09:33:09;1.88;;;1.30;;
1106;SDS011;540;49.448;8.612;2023-07-29T09:35:37;1.50;;;1.23;;
1106;SDS011;540;49.448;8.612;2023-07-29T09:38:07;2.88;;;1.58;;
1106;SDS011;540;49.448;8.612;2023-07-29T09:40:35;1.70;;;1.38;;
1106;SDS011;540;49.448;8.612;2023-07-29T09:43:04;1.42;;;1.33;;
1106;SDS011;540;49.448;8.612;2023-07-29T09:45:34;2.03;;;1.10;;
1106;SDS011;540;49.448;8.612;2023-07-29T09:48:03;1.23;;;1.08;;
1106;SDS011;540;49.448;8.612;2023-07-29T09:50:35;4.88;;;1.40;;
1106;SDS011;540;49.448;8.612;2023-07-29T09:53:03;1.35;;;1.10;;
1106;SDS011;540;49.448;8.612;2023-07-29T09:55:35;3.13;;;1.10;;
1106;SDS011;540;49.448;8.612;2023-07-29T09:58:03;3.38;;;1.30;;
1106;SDS011;540;49.448;8.612;2023-07-29T10:00:34;1.20;;;1.10;;
1106;SDS011;540;49.448;8.612;2023-07-29T10:03:04;3.15;;;1.10;;
1106;SDS011;540;49.448;8.612;2023-07-29T10:05:33;2.53;;;1.30;;
1106;SDS011;540;49.448;8.612;2023-07-29T10:08:01;6.18;;;1.60;;
1106;SDS011;540;49.448;8.612;2023-07-29T10:10:30;2.85;;;1.80;;
1106;SDS011;540;49.448;8.612;2023-07-29T10:12:59;2.00;;;1.60;;
1106;SDS011;540;49.448;8.612;2023-07-29T10:15:28;1.58;;;1.25;;
1106;SDS011;540;49.448;8.612;2023-07-29T10:17:59;0.75;;;0.75;;
1106;SDS011;540;49.448;8.612;2023-07-29T10:20:28;3.88;;;1.92;;
1106;SDS011;540;49.448;8.612;2023-07-29T10:22:59;2.53;;;1.25;;
1106;SDS011;540;49.448;8.612;2023-07-29T10:25:30;1.10;;;1.00;;
1106;SDS011;540;49.448;8.612;2023-07-29T10:28:05;1.88;;;1.30;;
1106;SDS011;540;49.448;8.612;2023-07-29T10:30:34;1.13;;;1.02;;
1106;SDS011;540;49.448;8.612;2023-07-29T10:33:03;2.00;;;1.00;;
1106;SDS011;540;49.448;8.612;2023-07-29T10:35:33;1.58;;;1.10;;
1106;SDS011;540;49.448;8.612;2023-07-29T10:38:01;2.30;;;0.93;;
1106;SDS011;540;49.448;8.612;2023-07-29T10:43:19;0.95;;;0.90;;
1106;SDS011;540;49.448;8.612;2023-07-29T10:45:52;2.22;;;1.10;;
1106;SDS011;540;49.448;8.612;2023-07-29T10:48:41;2.78;;;1.40;;
1106;SDS011;540;49.448;8.612;2023-07-29T10:51:22;1.45;;;1.25;;
1106;SDS011;540;49.448;8.612;2023-07-29T10:53:56;1.05;;;0.95;;
1106;SDS011;540;49.448;8.612;2023-07-29T10:56:26;4.18;;;1.20;;
1106;SDS011;540;49.448;8.612;2023-07-29T10:58:57;1.55;;;1.45;;
1106;SDS011;540;49.448;8.612;2023-07-29T11:01:26;1.25;;;1.05;;
1106;SDS011;540;49.448;8.612;2023-07-29T11:09:53;2.28;;;1.20;;
1106;SDS011;540;49.448;8.612;2023-07-29T11:12:35;1.65;;;1.17;;
1106;SDS011;540;49.448;8.612;2023-07-29T11:15:12;2.75;;;1.33;;
1106;SDS011;540;49.448;8.612;2023-07-29T11:17:45;1.40;;;1.17;;
1106;SDS011;540;49.448;8.612;2023-07-29T11:20:15;1.35;;;0.90;;
1106;SDS011;540;49.448;8.612;2023-07-29T11:22:43;1.50;;;1.40;;
1106;SDS011;540;49.448;8.612;2023-07-29T11:25:12;1.08;;;0.80;;
1106;SDS011;540;49.448;8.612;2023-07-29T11:27:41;7.38;;;1.10;;
1106;SDS011;540;49.448;8.612;2023-07-29T11:30:11;1.20;;;1.10;;
1106;SDS011;540;49.448;8.612;2023-07-29T11:32:41;2.42;;;0.95;;
1106;SDS011;540;49.448;8.612;2023-07-29T11:35:11;2.38;;;1.08;;
1106;SDS011;540;49.448;8.612;2023-07-29T11:37:41;1.80;;;1.33;;
1106;SDS011;540;49.448;8.612;2023-07-29T11:40:13;1.33;;;1.00;;
1106;SDS011;540;49.448;8.612;2023-07-29T11:42:42;2.47;;;1.17;;
1106;SDS011;540;49.448;8.612;2023-07-29T11:45:12;0.82;;;0.80;;
1106;SDS011;540;49.448;8.612;2023-07-29T11:47:43;1.73;;;0.93;;
1106;SDS011;540;49.448;8.612;2023-07-29T11:50:12;3.85;;;1.45;;
1106;SDS011;540;49.448;8.612;2023-07-29T11:52:41;1.42;;;1.05;;
1106;SDS011;540;49.448;8.612;2023-07-29T11:55:10;1.33;;;1.13;;
1106;SDS011;540;49.448;8.612;2023-07-29T11:57:40;1.25;;;1.00;;
1106;SDS011;540;49.448;8.612;2023-07-29T12:00:09;2.92;;;1.33;;
1106;SDS011;540;49.448;8.612;2023-07-29T12:02:40;1.55;;;1.33;;
1106;SDS011;540;49.448;8.612;2023-07-29T12:05:12;1.05;;;0.98;;
1106;SDS011;540;49.448;8.612;2023-07-29T12:07:41;1.05;;;0.90;;
1106;SDS011;540;49.448;8.612;2023-07-29T12:10:10;1.13;;;1.02;;
1106;SDS011;540;49.448;8.612;2023-07-29T12:12:40;1.50;;;1.00;;
1106;SDS011;540;49.448;8.612;2023-07-29T12:15:13;1.60;;;1.15;;
1106;SDS011;540;49.448;8.612;2023-07-29T12:17:52;2.05;;;1.10;;
1106;SDS011;540;49.448;8.612;2023-07-29T12:20:21;1.75;;;1.17;;
1106;SDS011;540;49.448;8.612;2023-07-29T12:22:52;4.00;;;1.38;;
1106;SDS011;540;49.448;8.612;2023-07-29T12:25:21;1.48;;;1.10;;
1106;SDS011;540;49.448;8.612;2023-07-29T12:27:49;2.67;;;0.80;;
1106;SDS011;540;49.448;8.612;2023-07-29T12:30:21;1.13;;;1.02;;
1106;SDS011;540;49.448;8.612;2023-07-29T12:32:50;1.30;;;1.10;;
1106;SDS011;540;49.448;8.612;2023-07-29T12:35:18;1.70;;;1.17;;
1106;SDS011;540;49.448;8.612;2023-07-29T12:37:46;3.17;;;1.23;;
1106;SDS011;540;49.448;8.612;2023-07-29T12:40:25;1.25;;;1.10;;
1106;SDS011;540;49.448;8.612;2023-07-29T12:42:53;1.80;;;1.20;;
1106;SDS011;540;49.448;8.612;2023-07-29T12:45:23;2.55;;;1.00;;
1106;SDS011;540;49.448;8.612;2023-07-29T12:47:53;1.23;;;1.02;;
1106;SDS011;540;49.448;8.612;2023-07-29T12:50:21;1.63;;;1.25;;
1106;SDS011;540;49.448;8.612;2023-07-29T12:52:48;2.35;;;1.15;;
1106;SDS011;540;49.448;8.612;2023-07-29T12:55:16;2.17;;;1.10;;
1106;SDS011;540;49.448;8.612;2023-07-29T12:57:49;1.75;;;1.10;;
1106;SDS011;540;49.448;8.612;2023-07-29T13:00:17;2.95;;;1.27;;
1106;SDS011;540;49.448;8.612;2023-07-29T13:02:47;2.20;;;1.48;;
1106;SDS011;540;49.448;8.612;2023-07-29T13:05:15;2.90;;;1.55;;
1106;SDS011;540;49.448;8.612;2023-07-29T13:07:43;4.18;;;1.20;;
1106;SDS011;540;49.448;8.612;2023-07-29T13:10:11;4.55;;;1.27;;
1106;SDS011;540;49.448;8.612;2023-07-29T13:12:39;3.25;;;1.00;;
1106;SDS011;540;49.448;8.612;2023-07-29T13:15:07;3.63;;;1.63;;
1106;SDS011;540;49.448;8.612;2023-07-29T13:17:36;1.15;;;1.05;;
1106;SDS011;540;49.448;8.612;2023-07-29T13:20:07;2.42;;;1.20;;
1106;SDS011;540;49.448;8.612;2023-07-29T13:22:36;1.35;;;1.13;;
1106;SDS011;540;49.448;8.612;2023-07-29T13:25:04;1.80;;;1.30;;
1106;SDS011;540;49.448;8.612;2023-07-29T13:27:32;1.60;;;1.30;;
1106;SDS011;540;49.448;8.612;2023-07-29T13:30:00;1.02;;;0.93;;
1106;SDS011;540;49.448;8.612;2023-07-29T13:32:27;1.48;;;1.13;;
1106;SDS011;540;49.448;8.612;2023-07-29T13:34:55;1.08;;;0.90;;
1106;SDS011;540;49.448;8.612;2023-07-29T13:37:24;1.00;;;0.93;;
1106;SDS011;540;49.448;8.612;2023-07-29T13:39:52;1.30;;;1.20;;
1106;SDS011;540;49.448;8.612;2023-07-29T13:42:20;1.67;;;1.15;;
1106;SDS011;540;49.448;8.612;2023-07-29T13:44:48;2.90;;;1.33;;
1106;SDS011;540;49.448;8.612;2023-07-29T13:47:16;4.50;;;1.30;;
1106;SDS011;540;49.448;8.612;2023-07-29T13:49:43;1.77;;;1.05;;
1106;SDS011;540;49.448;8.612;2023-07-29T13:52:12;5.25;;;2.35;;
1106;SDS011;540;49.448;8.612;2023-07-29T13:54:42;3.25;;;1.15;;
1106;SDS011;540;49.448;8.612;2023-07-29T13:57:10;1.40;;;1.08;;
1106;SDS011;540;49.448;8.612;2023-07-29T13:59:38;1.73;;;1.27;;
1106;SDS011;540;49.448;8.612;2023-07-29T14:02:06;1.27;;;1.10;;
1106;SDS011;540;49.448;8.612;2023-07-29T14:04:34;1.58;;;1.20;;
1106;SDS011;540;49.448;8.612;2023-07-29T14:07:02;4.18;;;1.20;;
1106;SDS011;540;49.448;8.612;2023-07-29T14:09:31;1.83;;;1.15;;
1106;SDS011;540;49.448;8.612;2023-07-29T14:12:00;1.27;;;1.00;;
1106;SDS011;540;49.448;8.612;2023-07-29T14:14:28;1.63;;;1.25;;
1106;SDS011;540;49.448;8.612;2023-07-29T14:16:56;1.88;;;1.20;;
1106;SDS011;540;49.448;8.612;2023-07-29T14:19:23;1.50;;;1.10;;
1106;SDS011;540;49.448;8.612;2023-07-29T14:21:51;1.58;;;1.15;;
1106;SDS011;540;49.448;8.612;2023-07-29T14:24:19;1.83;;;1.13;;
1106;SDS011;540;49.448;8.612;2023-07-29T14:26:47;1.42;;;0.95;;
1106;SDS011;540;49.448;8.612;2023-07-29T14:29:17;1.10;;;1.00;;
1106;SDS011;540;49.448;8.612;2023-07-29T14:31:44;3.83;;;1.38;;
1106;SDS011;540;49.448;8.612;2023-07-29T14:34:12;1.92;;;1.08;;
1106;SDS011;540;49.448;8.612;2023-07-29T14:36:40;1.40;;;1.20;;
1106;SDS011;540;49.448;8.612;2023-07-29T14:39:08;1.70;;;1.10;;
1106;SDS011;540;49.448;8.612;2023-07-29T14:41:36;3.55;;;1.40;;
1106;SDS011;540;49.448;8.612;2023-07-29T14:44:04;3.28;;;1.42;;
1106;SDS011;540;49.448;8.612;2023-07-29T14:46:33;1.75;;;1.23;;
1106;SDS011;540;49.448;8.612;2023-07-29T14:49:01;1.20;;;1.10;;
1106;SDS011;540;49.448;8.612;2023-07-29T14:51:29;4.10;;;1.38;;
1106;SDS011;540;49.448;8.612;2023-07-29T14:53:57;1.10;;;1.00;;
1106;SDS011;540;49.448;8.612;2023-07-29T14:56:25;1.23;;;1.02;;
1106;SDS011;540;49.448;8.612;2023-07-29T14:58:52;2.30;;;1.25;;
1106;SDS011;540;49.448;8.612;2023-07-29T15:01:20;1.50;;;1.40;;
1106;SDS011;540;49.448;8.612;2023-07-29T15:03:50;1.55;;;1.20;;
1106;SDS011;540;49.448;8.612;2023-07-29T15:06:18;1.77;;;1.35;;
1106;SDS011;540;49.448;8.612;2023-07-29T15:08:45;3.28;;;1.52;;
1106;SDS011;540;49.448;8.612;2023-07-29T15:11:13;3.30;;;2.03;;
1106;SDS011;540;49.448;8.612;2023-07-29T15:13:41;1.15;;;0.98;;
1106;SDS011;540;49.448;8.612;2023-07-29T15:16:09;1.40;;;1.30;;
1106;SDS011;540;49.448;8.612;2023-07-29T15:18:37;1.20;;;1.10;;
1106;SDS011;540;49.448;8.612;2023-07-29T15:21:06;1.23;;;1.02;;
1106;SDS011;540;49.448;8.612;2023-07-29T15:23:35;4.20;;;1.10;;
1106;SDS011;540;49.448;8.612;2023-07-29T15:26:03;2.45;;;1.65;;
1106;SDS011;540;49.448;8.612;2023-07-29T15:28:31;1.65;;;1.27;;
1106;SDS011;540;49.448;8.612;2023-07-29T15:30:59;1.77;;;1.20;;
1106;SDS011;540;49.448;8.612;2023-07-29T15:33:27;2.33;;;1.40;;
1106;SDS011;540;49.448;8.612;2023-07-29T15:35:55;2.45;;;1.90;;
1106;SDS011;540;49.448;8.612;2023-07-29T15:38:24;3.63;;;2.40;;
1106;SDS011;540;49.448;8.612;2023-07-29T15:40:51;1.67;;;1.45;;
1106;SDS011;540;49.448;8.612;2023-07-29T15:43:19;2.10;;;1.30;;
1106;SDS011;540;49.448;8.612;2023-07-29T15:45:47;2.95;;;1.40;;
1106;SDS011;540;49.448;8.612;2023-07-29T15:48:15;2.25;;;1.27;;